Time;durP1;ratioP1;P1;durP2;ratioP2;P2;SDS_P1;SDS_P2;PMS_P1;PMS_P2;Temp;Humidity;BMP_temperature;BMP_pressure;BME280_temperature;BME280_humidity;BME280_pressure;Samples;Min_cycle;Max_cycle;Signal;HPM_P1;HPM_P2
2023/07/09 00:02:26;;;;;;;6.13;3.78;;;21.40;91.10;;;21.47;85.83;97550.09;5026419;28;20037;-36
2023/07/09 00:04:52;;;;;;;6.75;4.18;;;21.40;91.40;;;21.44;85.94;97552.13;5032682;28;20119;-36
2023/07/09 00:07:28;;;;;;;5.75;4.25;;;21.30;91.50;;;21.40;85.36;97546.13;5025960;28;20139;-36
2023/07/09 00:09:55;;;;;;;6.32;3.80;;;21.30;91.40;;;21.38;84.81;97548.09;5025933;28;20036;-36
2023/07/09 00:12:21;;;;;;;7.57;4.50;;;21.20;91.40;;;21.33;85.09;97545.75;5028935;28;20060;-36
2023/07/09 00:14:47;;;;;;;5.32;4.10;;;21.30;91.50;;;21.37;84.55;97541.00;5030775;28;20112;-36
2023/07/09 00:17:30;;;;;;;5.38;3.97;;;21.30;91.40;;;21.35;84.98;97549.19;5021687;28;20116;-36
2023/07/09 00:19:57;;;;;;;4.88;3.45;;;21.30;91.60;;;21.33;85.81;97544.91;5029513;28;20117;-36
2023/07/09 00:22:22;;;;;;;6.60;4.05;;;21.20;91.70;;;21.31;86.85;97552.22;5028441;28;20306;-36
2023/07/09 00:24:50;;;;;;;4.97;3.78;;;21.20;91.90;;;21.27;86.55;97548.09;5030496;28;20262;-35
2023/07/09 00:27:21;;;;;;;6.70;3.97;;;21.20;92.00;;;21.24;87.54;97551.00;5030996;28;20049;-36
2023/07/09 00:29:47;;;;;;;6.90;4.30;;;21.10;92.10;;;21.20;87.75;97549.53;5034510;28;20115;-36
2023/07/09 00:32:16;;;;;;;7.85;4.40;;;21.10;92.30;;;21.17;87.71;97551.50;5028589;28;20492;-36
2023/07/09 00:34:48;;;;;;;7.68;4.90;;;21.00;92.30;;;21.10;88.65;97546.69;5033629;28;20033;-36
2023/07/09 00:37:16;;;;;;;7.25;4.60;;;21.00;92.50;;;21.09;88.88;97548.53;5033985;28;20037;-36
2023/07/09 00:39:42;;;;;;;6.97;4.13;;;21.00;92.60;;;21.06;88.97;97556.81;5032419;28;20040;-36
2023/07/09 00:42:20;;;;;;;6.93;4.30;;;21.00;92.70;;;21.03;89.28;97554.38;5025948;28;20033;-35
2023/07/09 00:44:51;;;;;;;4.70;3.50;;;20.90;92.80;;;20.87;89.18;97537.75;5035848;28;20036;-35
2023/07/09 00:47:44;;;;;;;7.30;3.75;;;20.90;92.90;;;20.88;88.21;97539.47;5028555;28;20069;-36
2023/07/09 00:50:27;;;;;;;6.57;3.70;;;20.90;92.80;;;21.01;86.98;97563.50;5019571;28;20072;-36
2023/07/09 00:52:58;;;;;;;6.30;3.88;;;20.90;92.60;;;20.94;86.50;97542.53;5031437;28;20565;-36
2023/07/09 00:55:31;;;;;;;6.82;3.75;;;20.90;92.60;;;21.02;87.65;97554.50;5040318;28;20051;-36
2023/07/09 00:58:03;;;;;;;5.00;3.70;;;20.90;92.80;;;20.96;89.03;97564.72;5026707;28;20051;-36
2023/07/09 01:00:46;;;;;;;5.45;3.72;;;20.90;93.10;;;20.93;89.50;97569.47;5021506;28;20028;-36
2023/07/09 01:03:22;;;;;;;6.13;3.72;;;20.80;93.20;;;20.87;90.95;97565.44;5030858;28;20033;-35
2023/07/09 01:05:51;;;;;;;5.55;3.95;;;20.80;93.50;;;20.82;90.67;97561.38;5028503;28;20086;-36
2023/07/09 01:08:19;;;;;;;5.65;3.58;;;20.70;93.90;;;20.82;90.08;97572.97;5025996;28;20068;-36
2023/07/09 01:10:45;;;;;;;6.03;4.38;;;20.70;93.50;;;20.82;91.12;97561.38;5027861;28;20473;-36
2023/07/09 01:13:11;;;;;;;4.13;3.50;;;20.70;93.70;;;20.77;92.05;97559.91;5029375;28;20087;-36
2023/07/09 01:15:39;;;;;;;4.80;3.30;;;20.70;94.00;;;20.62;93.01;97546.81;5028723;28;20029;-35
2023/07/09 01:18:05;;;;;;;5.00;3.60;;;20.60;94.10;;;20.69;93.04;97569.47;5020792;28;20029;-36
2023/07/09 01:20:31;;;;;;;5.15;3.60;;;20.60;94.20;;;20.65;94.54;97574.22;5028541;28;20082;-36
2023/07/09 01:23:00;;;;;;;6.82;3.28;;;20.60;94.50;;;20.60;95.09;97566.50;5034538;28;20083;-36
2023/07/09 01:25:28;;;;;;;5.93;3.90;;;20.60;94.70;;;20.53;95.69;97565.25;5035210;28;20029;-36
2023/07/09 01:27:54;;;;;;;4.15;3.25;;;20.50;94.90;;;20.53;95.57;97567.94;5034742;28;20029;-36
2023/07/09 01:30:39;;;;;;;5.40;3.33;;;20.50;95.00;;;20.51;94.55;97569.00;5031034;28;20033;-36
2023/07/09 01:33:06;;;;;;;5.72;3.42;;;20.40;94.90;;;20.37;94.86;97552.16;5025753;28;20033;-36
2023/07/09 01:35:35;;;;;;;6.68;3.70;;;20.40;95.00;;;20.47;95.60;97564.84;5033148;28;20033;-35
2023/07/09 01:38:02;;;;;;;5.35;3.58;;;20.40;95.20;;;20.43;95.93;97555.34;5032187;28;20457;-35
2023/07/09 01:40:28;;;;;;;5.63;3.33;;;20.40;95.30;;;20.41;96.15;97558.13;5022331;22;20136;-36
2023/07/09 01:42:58;;;;;;;6.80;4.13;;;20.30;95.50;;;20.38;96.32;97553.84;4998825;28;20041;-37
2023/07/09 01:45:23;;;;;;;6.22;4.30;;;20.30;95.60;;;20.37;97.58;97562.88;4996341;28;20427;-36
2023/07/09 01:47:49;;;;;;;6.55;4.18;;;20.30;96.00;;;20.34;98.15;97556.88;4999421;28;20053;-36
2023/07/09 01:50:16;;;;;;;6.75;4.03;;;20.30;96.20;;;20.32;98.44;97557.00;4996458;28;20073;-36
2023/07/09 01:52:44;;;;;;;5.70;4.10;;;20.30;96.30;;;20.29;99.20;97554.53;5001255;28;20026;-36
2023/07/09 01:55:16;;;;;;;5.15;4.18;;;20.20;96.50;;;20.28;99.80;97558.19;4989683;28;20040;-36
2023/07/09 01:57:43;;;;;;;8.30;4.65;;;20.20;96.70;;;20.26;99.74;97564.63;4997084;28;20026;-36
2023/07/09 02:00:14;;;;;;;6.75;4.13;;;20.20;96.80;;;20.23;100.00;97565.72;4996129;28;20113;-36
2023/07/09 02:02:45;;;;;;;7.38;4.20;;;20.10;97.00;;;20.23;100.00;97570.22;4994213;28;20157;-36
2023/07/09 02:05:20;;;;;;;9.00;4.00;;;20.10;97.20;;;20.20;100.00;97568.59;4991951;28;20392;-36
2023/07/09 02:07:47;;;;;;;4.32;3.50;;;20.10;97.30;;;20.12;100.00;97565.66;4998477;28;20323;-36
2023/07/09 02:10:16;;;;;;;4.82;3.60;;;20.10;97.40;;;20.14;100.00;97574.44;4993350;28;20030;-36
2023/07/09 02:12:41;;;;;;;5.10;4.22;;;20.00;97.20;;;20.11;100.00;97569.28;4996390;28;20030;-36
2023/07/09 02:15:08;;;;;;;5.13;3.85;;;20.00;97.70;;;20.08;100.00;97562.34;4993458;28;20045;-36
2023/07/09 02:17:34;;;;;;;5.57;3.13;;;20.00;97.90;;;20.02;100.00;97571.66;4998143;28;20038;-35
2023/07/09 02:19:59;;;;;;;5.55;4.10;;;20.00;98.10;;;19.98;100.00;97558.63;4997148;28;20029;-38
2023/07/09 02:22:25;;;;;;;6.40;4.13;;;20.00;98.30;;;19.98;100.00;97558.63;4992595;28;20042;-36
2023/07/09 02:24:52;;;;;;;4.63;3.25;;;19.90;98.30;;;19.96;100.00;97573.94;4999245;28;20068;-36
2023/07/09 02:27:20;;;;;;;4.32;3.17;;;19.90;98.30;;;19.94;99.99;97573.19;4976341;28;20041;-36
2023/07/09 02:29:46;;;;;;;4.05;3.10;;;19.90;98.10;;;19.94;99.16;97575.88;4994637;28;20034;-35
2023/07/09 02:32:22;;;;;;;4.45;3.10;;;19.90;98.00;;;19.92;98.56;97569.75;4994296;28;20052;-36
2023/07/09 02:34:48;;;;;;;6.22;3.40;;;19.90;98.00;;;19.92;98.77;97567.97;4987358;28;20033;-36
2023/07/09 02:37:17;;;;;;;5.03;3.40;;;19.90;98.00;;;19.92;98.57;97572.44;4993460;28;20064;-36
2023/07/09 02:39:43;;;;;;;5.65;3.20;;;19.80;98.00;;;19.91;98.53;97576.09;4994567;28;20038;-36
2023/07/09 02:42:13;;;;;;;6.50;3.42;;;19.80;98.10;;;19.79;99.49;97559.97;4989714;28;20429;-36
2023/07/09 02:44:40;;;;;;;6.20;3.15;;;19.80;98.40;;;19.85;100.00;97572.03;4993444;28;20046;-36
2023/07/09 02:47:06;;;;;;;5.05;3.10;;;19.80;98.60;;;19.83;100.00;97573.97;4993827;28;20120;-36
2023/07/09 02:49:32;;;;;;;4.07;2.90;;;19.70;98.80;;;19.80;100.00;97584.91;4996230;28;20065;-36
2023/07/09 02:51:58;;;;;;;4.90;3.22;;;19.70;99.00;;;19.76;100.00;97578.06;4988361;28;20030;-36
2023/07/09 02:54:24;;;;;;;5.55;3.13;;;19.70;99.20;;;19.73;100.00;97583.59;4991022;28;20046;-35
2023/07/09 02:56:49;;;;;;;5.28;3.05;;;19.70;99.30;;;19.71;100.00;97585.53;4993241;28;20036;-36
2023/07/09 02:59:15;;;;;;;4.65;3.38;;;19.60;99.40;;;19.67;100.00;97584.88;4992806;28;20030;-35
2023/07/09 03:01:41;;;;;;;4.38;2.95;;;19.60;99.50;;;19.67;100.00;97589.34;4993849;28;20099;-35
2023/07/09 03:04:08;;;;;;;4.88;3.30;;;19.60;99.60;;;19.65;100.00;97589.50;4991010;28;20041;-35
2023/07/09 03:06:35;;;;;;;4.80;2.95;;;19.60;99.70;;;19.63;100.00;97589.59;4990665;28;20030;-35
2023/07/09 03:09:03;;;;;;;5.95;3.50;;;19.60;99.70;;;19.61;100.00;97586.19;4994335;28;20042;-36
2023/07/09 03:11:31;;;;;;;5.25;3.42;;;19.60;99.80;;;19.60;100.00;97586.28;4996166;28;20034;-36
2023/07/09 03:14:00;;;;;;;6.45;3.30;;;19.60;99.90;;;19.60;100.00;97586.28;4989860;28;20033;-36
2023/07/09 03:16:27;;;;;;;4.25;3.10;;;19.50;99.90;;;19.57;100.00;97592.69;4992475;28;20042;-36
2023/07/09 03:18:54;;;;;;;4.75;3.10;;;19.50;99.90;;;19.56;100.00;97593.66;4990824;28;20030;-36
2023/07/09 03:21:24;;;;;;;8.70;3.58;;;19.50;99.90;;;19.54;100.00;97590.25;4991847;28;20435;-36
2023/07/09 03:23:51;;;;;;;5.05;3.28;;;19.50;99.90;;;19.54;100.00;97598.28;4989699;28;20517;-35
2023/07/09 03:26:17;;;;;;;4.70;3.35;;;19.50;99.90;;;19.44;100.00;97576.66;4992130;28;20061;-35
2023/07/09 03:28:43;;;;;;;4.90;3.50;;;19.50;99.90;;;19.50;100.00;97587.88;4988325;28;20180;-36
2023/07/09 03:31:08;;;;;;;6.60;3.40;;;19.40;99.90;;;19.46;100.00;97588.09;4992323;28;20624;-36
2023/07/09 03:33:34;;;;;;;4.03;3.28;;;19.40;99.90;;;19.45;100.00;97589.06;4993188;28;20042;-36
2023/07/09 03:36:00;;;;;;;4.85;3.50;;;19.40;99.90;;;19.42;100.00;97589.28;4992304;28;20029;-35
2023/07/09 03:38:25;;;;;;;6.05;3.47;;;19.40;99.90;;;19.41;100.00;97592.91;4989253;28;20119;-34
2023/07/09 03:40:52;;;;;;;5.30;3.42;;;19.40;99.90;;;19.40;100.00;97591.22;4992212;28;20089;-35
2023/07/09 03:43:18;;;;;;;4.70;3.58;;;19.30;99.90;;;19.39;100.00;97596.66;4989375;28;20037;-35
2023/07/09 03:45:45;;;;;;;5.07;3.60;;;19.40;99.90;;;19.37;100.00;97595.91;4992967;28;20037;-36
2023/07/09 03:48:11;;;;;;;4.15;3.15;;;19.30;99.90;;;19.35;100.00;97606.72;4992128;28;20439;-35
2023/07/09 03:50:36;;;;;;;6.18;3.40;;;19.30;99.90;;;19.33;100.00;97600.63;4994020;28;20045;-35
2023/07/09 03:53:02;;;;;;;4.95;3.38;;;19.30;99.90;;;19.31;100.00;97602.53;4993234;28;20070;-35
2023/07/09 03:55:28;;;;;;;4.70;3.10;;;19.30;99.90;;;19.32;100.00;97600.72;4993770;28;20033;-35
2023/07/09 03:57:54;;;;;;;4.93;3.28;;;19.30;99.90;;;19.31;100.00;97599.88;4989595;28;20040;-34
2023/07/09 04:00:21;;;;;;;5.90;3.22;;;19.30;99.90;;;19.32;100.00;97604.25;4986072;28;20034;-35
2023/07/09 04:02:48;;;;;;;5.53;3.67;;;19.30;99.90;;;19.37;100.00;97611.97;4993512;28;20112;-35
2023/07/09 04:05:14;;;;;;;6.13;3.25;;;19.30;99.90;;;19.37;100.00;97599.44;4992567;28;20032;-35
2023/07/09 04:07:40;;;;;;;5.50;3.55;;;19.40;99.90;;;19.43;100.00;97612.41;4992220;28;20030;-35
2023/07/09 04:10:06;;;;;;;6.32;3.63;;;19.40;99.90;;;19.50;100.00;97603.94;4994438;28;20099;-36
2023/07/09 04:12:32;;;;;;;4.90;3.22;;;19.50;99.90;;;19.56;100.00;97603.50;4992723;28;20116;-35
2023/07/09 04:14:58;;;;;;;9.23;3.50;;;19.50;99.90;;;19.60;100.00;97611.19;4991182;28;20176;-35
2023/07/09 04:17:24;;;;;;;6.35;3.42;;;19.60;99.90;;;19.63;100.00;97613.69;4989267;28;20037;-35
2023/07/09 04:19:51;;;;;;;4.70;3.25;;;19.60;99.90;;;19.69;100.00;97616.88;4993517;28;20050;-35
2023/07/09 04:22:17;;;;;;;6.60;3.53;;;19.60;99.90;;;19.63;100.00;97597.63;4991180;28;20029;-35
2023/07/09 04:24:43;;;;;;;4.25;3.10;;;19.70;99.90;;;19.72;100.00;97603.25;4991928;28;20044;-36
2023/07/09 04:27:09;;;;;;;5.70;3.78;;;19.70;99.90;;;19.81;100.00;97614.22;4993155;28;20449;-36
2023/07/09 04:29:35;;;;;;;5.57;3.67;;;19.80;99.90;;;19.87;100.00;97609.41;4994958;28;20504;-36
2023/07/09 04:32:21;;;;;;;5.78;3.42;;;19.90;99.90;;;19.95;100.00;97621.25;4996473;28;20116;-36
2023/07/09 04:34:47;;;;;;;5.13;3.50;;;19.90;99.90;;;20.01;100.00;97619.97;4995941;28;20057;-35
2023/07/09 04:37:16;;;;;;;6.60;3.45;;;20.00;99.90;;;20.08;100.00;97618.56;4991829;28;20052;-36
2023/07/09 04:39:42;;;;;;;5.25;3.15;;;20.00;99.90;;;20.15;100.00;97624.31;4993925;28;20022;-36
2023/07/09 04:42:14;;;;;;;4.80;3.30;;;20.10;99.90;;;20.21;100.00;97618.53;4993404;28;20038;-36
2023/07/09 04:44:40;;;;;;;6.13;3.28;;;20.20;99.90;;;20.27;100.00;97620.75;4990211;28;20058;-36
2023/07/09 04:47:06;;;;;;;4.90;3.30;;;20.20;99.90;;;20.31;100.00;97622.22;4996107;28;20037;-35
2023/07/09 04:49:32;;;;;;;5.32;3.60;;;20.30;99.90;;;20.40;99.81;97623.38;4994814;28;20358;-36
2023/07/09 04:51:59;;;;;;;5.55;3.20;;;20.30;99.90;;;20.48;97.84;97621.00;4995887;28;20041;-36
2023/07/09 04:54:26;;;;;;;6.85;3.30;;;20.40;99.90;;;20.50;96.51;97619.06;4991748;28;20029;-36
2023/07/09 04:56:52;;;;;;;6.47;3.33;;;20.50;99.90;;;20.59;95.48;97615.69;4991656;28;20065;-36
2023/07/09 04:59:18;;;;;;;6.18;3.88;;;20.60;99.90;;;20.70;94.55;97628.31;4998755;28;20026;-35
2023/07/09 05:01:44;;;;;;;5.57;3.60;;;20.60;99.90;;;20.79;93.54;97629.47;5000169;28;20540;-35
2023/07/09 05:04:09;;;;;;;4.78;3.03;;;20.70;99.90;;;20.83;92.68;97628.25;5001563;28;20030;-36
2023/07/09 05:06:35;;;;;;;5.43;3.47;;;20.80;99.90;;;20.95;92.54;97642.59;4998609;28;20038;-35
2023/07/09 05:09:01;;;;;;;5.63;3.35;;;20.90;99.90;;;21.05;91.53;97640.03;5000140;28;20517;-36
2023/07/09 05:11:27;;;;;;;3.53;2.83;;;21.00;99.90;;;21.16;91.59;97645.47;4995506;28;20025;-35
2023/07/09 05:13:53;;;;;;;5.35;3.58;;;21.10;99.90;;;21.15;90.13;97624.97;4998378;28;20079;-36
2023/07/09 05:16:18;;;;;;;4.50;3.30;;;21.20;99.90;;;21.36;89.53;97635.88;4988361;28;20627;-35
2023/07/09 05:18:45;;;;;;;6.53;3.50;;;21.30;99.90;;;21.49;88.74;97644.72;4994788;28;20466;-36
2023/07/09 05:21:11;;;;;;;5.13;3.25;;;21.40;99.90;;;21.62;88.68;97652.66;4998572;28;20030;-36
2023/07/09 05:23:37;;;;;;;5.65;3.17;;;21.50;99.90;;;21.79;88.64;97646.00;4999000;28;20084;-35
2023/07/09 05:26:04;;;;;;;4.63;2.97;;;21.60;99.90;;;22.15;86.41;97645.88;4994305;28;20414;-36
2023/07/09 05:28:32;;;;;;;6.68;3.60;;;21.80;99.90;;;22.52;83.03;97633.00;4996982;28;20403;-35
2023/07/09 05:30:59;;;;;;;5.57;3.08;;;22.20;99.50;;;23.09;78.83;97643.63;4993334;28;20065;-35
2023/07/09 05:33:24;;;;;;;6.60;3.70;;;22.50;98.80;;;23.73;74.10;97645.31;4987897;28;20109;-36
2023/07/09 05:35:50;;;;;;;6.15;3.53;;;22.80;98.00;;;24.33;69.13;97649.00;4990434;28;20399;-35
2023/07/09 05:38:16;;;;;;;11.10;3.92;;;23.30;97.20;;;24.55;66.83;97631.81;4986227;28;20033;-36
2023/07/09 05:40:42;;;;;;;5.45;3.20;;;23.60;96.50;;;24.64;66.60;97656.22;4985514;28;20293;-35
2023/07/09 05:43:09;;;;;;;6.97;3.40;;;23.70;96.20;;;24.42;65.39;97652.72;4987026;28;20470;-35
2023/07/09 05:45:35;;;;;;;6.80;3.67;;;23.80;95.40;;;24.28;65.34;97656.66;4991027;28;20014;-35
2023/07/09 05:48:01;;;;;;;7.43;3.50;;;23.70;95.00;;;24.12;66.17;97651.78;4992745;28;20107;-35
2023/07/09 05:50:28;;;;;;;4.63;3.60;;;23.70;94.90;;;24.02;67.93;97646.34;4988674;28;20394;-35
2023/07/09 05:52:54;;;;;;;4.85;3.20;;;23.70;95.20;;;23.98;67.55;97661.06;4989799;28;20444;-35
2023/07/09 05:55:20;;;;;;;8.25;4.07;;;23.70;95.00;;;23.81;66.77;97635.63;4978885;28;20033;-35
2023/07/09 05:57:46;;;;;;;5.35;3.50;;;23.70;94.70;;;23.95;66.62;97657.78;5006641;28;20093;-36
2023/07/09 06:00:12;;;;;;;4.72;3.50;;;23.70;94.50;;;24.00;66.62;97669.03;4985493;28;20033;-36
2023/07/09 06:02:39;;;;;;;7.95;3.67;;;23.80;94.40;;;24.10;66.33;97660.97;4987667;28;20030;-36
2023/07/09 06:05:08;;;;;;;6.03;3.65;;;23.90;94.30;;;24.19;65.77;97660.16;4984534;28;20038;-35
2023/07/09 06:07:34;;;;;;;5.20;3.67;;;24.00;94.10;;;24.25;65.64;97653.41;4990932;28;20251;-37
2023/07/09 06:10:00;;;;;;;4.78;3.30;;;24.10;94.10;;;24.39;65.81;97653.84;4992108;28;20091;-36
2023/07/09 06:12:26;;;;;;;7.40;3.65;;;24.20;94.00;;;24.47;65.39;97655.84;4990709;28;20096;-35
2023/07/09 06:14:51;;;;;;;5.35;3.17;;;24.30;94.00;;;24.65;65.48;97657.94;4989018;28;20518;-35
2023/07/09 06:17:17;;;;;;;6.05;3.75;;;24.40;94.00;;;24.77;64.36;97660.34;4987377;28;20037;-36
2023/07/09 06:19:43;;;;;;;5.93;4.05;;;24.60;93.80;;;24.93;63.71;97667.06;4983921;28;20522;-36
2023/07/09 06:22:09;;;;;;;6.68;3.47;;;24.70;93.50;;;25.08;63.11;97667.50;4991530;28;20049;-37
2023/07/09 06:24:36;;;;;;;4.15;3.00;;;24.80;93.30;;;25.26;62.28;97673.91;4990635;28;20042;-36
2023/07/09 06:27:01;;;;;;;6.72;3.90;;;25.00;93.10;;;25.37;60.96;97670.22;4997370;28;20481;-36
2023/07/09 06:29:27;;;;;;;5.93;3.85;;;25.10;92.60;;;25.55;59.33;97672.19;4993321;28;20168;-36
2023/07/09 06:31:53;;;;;;;5.85;3.60;;;25.20;92.30;;;25.69;59.05;97671.75;4991086;28;20041;-36
2023/07/09 06:34:18;;;;;;;7.22;3.70;;;25.40;92.10;;;25.83;57.61;97676.69;4986903;28;20464;-36
2023/07/09 06:36:44;;;;;;;5.18;3.95;;;25.50;91.80;;;25.95;57.38;97673.81;4988217;28;20034;-35
2023/07/09 06:39:10;;;;;;;7.88;3.92;;;25.60;91.50;;;26.09;56.07;97671.53;4988825;28;20041;-36
2023/07/09 06:41:38;;;;;;;6.55;4.28;;;25.70;91.20;;;26.16;55.16;97673.63;4991644;28;20066;-36
2023/07/09 06:44:06;;;;;;;4.25;3.33;;;25.90;90.70;;;26.24;54.58;97661.06;4990218;28;20959;-36
2023/07/09 06:46:32;;;;;;;5.47;3.72;;;26.00;90.60;;;26.42;54.20;97673.81;4994624;28;20084;-36
2023/07/09 06:48:58;;;;;;;5.18;3.67;;;26.00;90.30;;;26.41;53.97;97650.44;5000210;28;20036;-36
2023/07/09 06:51:23;;;;;;;5.18;3.70;;;26.20;90.30;;;26.74;53.39;97673.38;4996618;28;20034;-37
2023/07/09 06:53:51;;;;;;;4.07;3.50;;;26.40;90.10;;;26.92;52.84;97675.22;4990004;28;20034;-36
2023/07/09 06:56:17;;;;;;;4.97;3.78;;;26.50;89.70;;;27.05;51.56;97681.97;4986622;28;20580;-36
2023/07/09 06:58:43;;;;;;;5.25;4.07;;;26.70;88.80;;;27.11;52.22;97669.66;4993167;28;20431;-36
2023/07/09 07:01:10;;;;;;;3.70;3.28;;;26.80;88.60;;;27.33;51.27;97675.66;4984539;28;20398;-36
2023/07/09 07:03:36;;;;;;;5.40;3.42;;;26.90;88.00;;;27.50;50.78;97674.78;4987523;28;20025;-36
2023/07/09 07:06:03;;;;;;;7.25;4.22;;;27.10;87.50;;;27.58;51.67;97682.13;4982881;28;20038;-36
2023/07/09 07:08:29;;;;;;;5.50;3.80;;;27.20;86.40;;;27.68;49.75;97672.06;4996098;28;20116;-36
2023/07/09 07:11:02;;;;;;;7.38;4.45;;;27.30;86.20;;;27.71;48.86;97668.16;4995813;28;20072;-36
2023/07/09 07:13:36;;;;;;;5.15;4.03;;;27.40;84.80;;;27.87;49.35;97678.25;4995672;28;20025;-36
2023/07/09 07:16:05;;;;;;;7.07;4.20;;;27.50;85.40;;;27.90;48.54;97673.41;4995642;28;20042;-36
2023/07/09 07:18:30;;;;;;;5.72;4.20;;;27.50;84.70;;;27.97;47.28;97670.91;4992629;28;20025;-36
2023/07/09 07:20:56;;;;;;;7.85;4.03;;;27.60;84.00;;;27.99;46.94;97669.75;4991207;28;20038;-36
2023/07/09 07:23:23;;;;;;;7.50;4.00;;;27.60;82.90;;;28.12;46.92;97672.03;4992631;28;20115;-36
2023/07/09 07:25:49;;;;;;;4.88;3.63;;;27.70;83.10;;;28.26;47.11;97665.13;4991849;28;20501;-36
2023/07/09 07:28:16;;;;;;;6.63;4.20;;;27.80;82.80;;;28.42;45.94;97674.38;4993659;28;20049;-36
2023/07/09 07:30:42;;;;;;;5.35;3.70;;;28.00;82.00;;;28.56;46.41;97671.06;4998054;28;20037;-36
2023/07/09 07:33:08;;;;;;;6.32;4.07;;;28.10;81.90;;;28.73;45.66;97670.13;4994727;28;20061;-36
2023/07/09 07:35:34;;;;;;;8.35;4.30;;;28.30;81.40;;;28.80;45.52;97664.88;4998082;28;20034;-36
2023/07/09 07:38:00;;;;;;;6.03;3.85;;;28.40;80.90;;;28.94;45.73;97669.66;4998672;28;20030;-36
2023/07/09 07:40:25;;;;;;;5.07;3.92;;;28.50;80.90;;;29.04;45.36;97671.38;4991018;28;20677;-36
2023/07/09 07:42:51;;;;;;;5.28;4.20;;;28.60;80.20;;;29.10;45.17;97674.25;4998027;28;20188;-36
2023/07/09 07:45:17;;;;;;;7.57;4.57;;;28.70;80.00;;;29.08;44.07;97675.47;4992623;28;20297;-36
2023/07/09 07:47:43;;;;;;;6.70;4.40;;;28.80;78.70;;;29.04;44.72;97664.09;4990826;28;20046;-36
2023/07/09 07:50:09;;;;;;;8.13;4.20;;;28.70;78.50;;;29.07;46.25;97668.31;4992200;28;20557;-36
2023/07/09 07:52:37;;;;;;;5.72;3.85;;;28.70;79.80;;;29.07;46.92;97652.03;4996548;28;20545;-36
2023/07/09 07:55:07;;;;;;;6.47;4.07;;;28.80;82.10;;;29.15;46.20;97662.94;4993625;28;20077;-36
2023/07/09 07:57:33;;;;;;;8.00;4.18;;;28.90;81.00;;;29.27;45.71;97658.88;4992412;28;20029;-36
2023/07/09 07:59:58;;;;;;;6.13;4.32;;;29.00;80.30;;;29.27;45.34;97658.88;4996609;28;20079;-36
2023/07/09 08:02:24;;;;;;;8.75;4.55;;;29.00;79.70;;;29.32;45.31;97655.66;4997245;28;20037;-36
2023/07/09 08:04:50;;;;;;;4.70;4.25;;;29.10;79.60;;;29.41;46.43;97654.63;4995724;28;20777;-36
2023/07/09 08:07:18;;;;;;;5.88;3.85;;;29.10;81.50;;;29.46;45.56;97652.25;4992485;28;20037;-36
2023/07/09 08:09:46;;;;;;;6.70;4.45;;;29.10;79.30;;;29.53;44.83;97646.16;4995231;28;20356;-36
2023/07/09 08:12:13;;;;;;;8.10;4.55;;;29.20;78.80;;;29.58;43.72;97652.78;4994621;28;20030;-36
2023/07/09 08:14:40;;;;;;;5.57;3.80;;;29.20;77.20;;;29.61;43.73;97652.44;4991892;28;20457;-36
2023/07/09 08:17:07;;;;;;;5.50;4.03;;;29.20;77.20;;;29.67;43.95;97650.91;4993557;28;20498;-36
2023/07/09 08:19:48;;;;;;;5.10;4.10;;;29.30;77.90;;;29.74;42.80;97656.47;4993558;28;20038;-36
2023/07/09 08:22:15;;;;;;;5.00;3.92;;;29.40;76.30;;;29.82;43.09;97656.50;4989745;28;20207;-36
2023/07/09 08:24:42;;;;;;;6.85;4.25;;;29.40;76.00;;;29.83;41.64;97653.63;4992357;28;20029;-36
2023/07/09 08:27:08;;;;;;;5.72;4.13;;;29.50;74.60;;;29.93;41.94;97652.56;4992144;28;20038;-36
2023/07/09 08:29:34;;;;;;;5.07;4.00;;;29.60;74.20;;;29.95;41.67;97642.38;4994028;28;20033;-36
2023/07/09 08:32:00;;;;;;;7.40;4.55;;;29.60;73.70;;;30.03;41.33;97661.41;4995663;28;20108;-36
2023/07/09 08:34:25;;;;;;;7.82;4.30;;;29.70;73.40;;;30.03;41.96;97659.50;4993961;28;20513;-36
2023/07/09 08:36:51;;;;;;;6.03;4.00;;;29.60;73.70;;;30.08;41.54;97662.56;4985236;28;20037;-36
2023/07/09 08:39:17;;;;;;;6.07;4.00;;;29.70;73.60;;;30.13;41.57;97656.63;4986502;28;20035;-36
2023/07/09 08:42:07;;;;;;;4.55;3.95;;;29.70;73.20;;;30.21;41.48;97655.75;4994785;28;20032;-36
2023/07/09 08:45:03;;;;;;;6.20;4.22;;;29.80;73.10;;;30.29;41.00;97652.13;4989350;28;20033;-36
2023/07/09 08:47:53;;;;;;;5.65;4.03;;;29.90;72.80;;;30.24;39.86;97653.50;4984196;28;20088;-36
2023/07/09 08:50:24;;;;;;;6.80;4.38;;;29.90;70.90;;;30.22;40.46;97650.13;4992703;28;20046;-36
2023/07/09 08:52:52;;;;;;;4.60;3.83;;;29.90;71.30;;;30.33;40.17;97656.19;4987987;28;20174;-36
2023/07/09 08:55:25;;;;;;;5.43;4.40;;;29.90;71.60;;;30.37;40.00;97654.88;4988548;28;20125;-36
2023/07/09 08:58:25;;;;;;;6.60;4.32;;;30.00;71.80;;;30.50;39.96;97662.47;4991934;28;20054;-36
2023/07/09 09:01:01;;;;;;;7.32;4.28;;;30.10;70.70;;;30.49;39.40;97658.91;4991450;28;20104;-36
2023/07/09 09:03:42;;;;;;;6.43;4.30;;;30.10;69.70;;;30.54;38.76;97669.25;5006088;28;20041;-36
2023/07/09 09:06:14;;;;;;;7.55;3.88;;;30.20;69.20;;;30.63;38.56;97663.59;4993312;28;20042;-36
2023/07/09 09:09:16;;;;;;;6.22;4.15;;;30.30;68.80;;;30.69;37.94;97664.75;5005548;28;20456;-36
2023/07/09 09:11:59;;;;;;;7.25;4.40;;;30.30;67.50;;;30.76;38.29;97663.00;4984022;28;20042;-36
2023/07/09 09:14:34;;;;;;;5.53;4.45;;;30.40;67.60;;;30.79;38.24;97649.03;4986780;28;20109;-36
2023/07/09 09:17:01;;;;;;;5.63;3.92;;;30.50;67.80;;;30.87;36.71;97656.31;4989321;28;20033;-36
2023/07/09 09:19:37;;;;;;;5.07;4.00;;;30.60;65.70;;;30.91;37.09;97668.53;4990428;28;20034;-36
2023/07/09 09:22:11;;;;;;;7.18;4.10;;;30.60;65.50;;;30.87;37.50;97661.75;4988383;28;20033;-36
2023/07/09 09:24:55;;;;;;;6.32;4.32;;;30.60;66.00;;;30.95;39.16;97669.91;4990021;28;20251;-36
2023/07/09 09:27:21;;;;;;;6.43;4.43;;;30.50;67.20;;;30.97;38.02;97651.50;4983040;28;20021;-36
2023/07/09 09:29:47;;;;;;;4.97;4.10;;;30.60;67.20;;;31.07;38.13;97653.16;4992076;28;20100;-36
2023/07/09 09:32:28;;;;;;;5.72;4.22;;;30.70;67.00;;;31.13;37.86;97658.72;4982835;28;20046;-36
2023/07/09 09:34:55;;;;;;;5.30;3.90;;;30.70;66.80;;;31.20;38.29;97656.97;4987629;28;20026;-36
2023/07/09 09:37:30;;;;;;;6.10;4.45;;;30.90;67.70;;;31.20;37.68;97658.84;4988996;28;20609;-36
2023/07/09 09:39:58;;;;;;;5.15;4.22;;;30.90;66.00;;;31.30;37.63;97661.31;4986150;28;20306;-36
2023/07/09 09:42:25;;;;;;;6.28;4.20;;;30.90;66.00;;;31.35;37.22;97665.22;4990566;28;20041;-36
2023/07/09 09:44:55;;;;;;;7.05;4.05;;;31.00;65.40;;;31.41;36.72;97663.63;5007368;28;20042;-36
2023/07/09 09:47:21;;;;;;;6.95;4.10;;;31.10;64.30;;;31.48;35.78;97658.28;4990875;28;20124;-36
2023/07/09 09:49:47;;;;;;;7.03;4.07;;;31.10;63.30;;;31.49;36.04;97660.84;4987509;28;20042;-36
2023/07/09 09:52:15;;;;;;;7.00;4.07;;;31.10;63.40;;;31.62;35.73;97670.28;4984801;28;20034;-36
2023/07/09 09:54:51;;;;;;;7.05;4.22;;;31.20;62.90;;;31.65;34.83;97665.31;4992897;28;20038;-36
2023/07/09 09:57:24;;;;;;;7.18;3.92;;;31.30;61.70;;;31.69;35.42;97660.34;4992397;28;21114;-36
2023/07/09 09:59:50;;;;;;;6.68;4.43;;;31.30;62.10;;;31.73;34.48;97643.44;4991617;28;20021;-36
2023/07/09 10:02:20;;;;;;;6.35;4.00;;;31.40;61.10;;;31.89;33.97;97638.84;4987075;28;20084;-36
2023/07/09 10:04:47;;;;;;;5.90;3.38;;;31.50;60.20;;;31.88;33.18;97631.72;4991411;28;20042;-36
2023/07/09 10:07:28;;;;;;;5.53;3.20;;;31.60;59.70;;;32.05;32.47;97652.38;4994938;28;20030;-36
2023/07/09 10:09:55;;;;;;;6.20;3.63;;;31.70;57.90;;;32.14;31.49;97640.31;4989654;28;20121;-36
2023/07/09 10:12:50;;;;;;;6.25;3.13;;;31.80;57.20;;;32.19;31.50;97630.72;4984093;28;20041;-36
2023/07/09 10:15:56;;;;;;;7.75;3.88;;;31.80;56.30;;;32.27;32.47;97631.47;4990181;28;20107;-36
2023/07/09 10:18:59;;;;;;;4.35;3.40;;;31.90;57.80;;;32.34;32.17;97632.41;5005832;28;20656;-36
2023/07/09 10:21:47;;;;;;;;;;;32.00;57.90;;;32.49;30.47;97626.94;4989938;28;20949;-36
2023/07/09 10:24:33;;;;;;;4.28;3.13;;;32.10;55.60;;;32.53;29.77;97621.94;4992623;28;20312;-36
2023/07/09 10:27:29;;;;;;;5.63;2.83;;;32.10;53.70;;;32.63;27.74;97630.72;4992666;28;20578;-36